sensor_id;sensor_type;location;lat;lon;timestamp;P1;durP1;ratioP1;P2;durP2;ratioP2
5827;SDS011;42583;50.240;8.444;2024-01-16T00:06:47;3.30;;;1.93;;
5827;SDS011;42583;50.240;8.444;2024-01-16T00:21:48;10.75;;;2.65;;
5827;SDS011;42583;50.240;8.444;2024-01-16T00:36:48;6.33;;;2.37;;
5827;SDS011;42583;50.240;8.444;2024-01-16T00:51:49;6.97;;;2.40;;
5827;SDS011;42583;50.240;8.444;2024-01-16T01:06:49;8.90;;;2.40;;
5827;SDS011;42583;50.240;8.444;2024-01-16T01:21:50;11.18;;;4.03;;
5827;SDS011;42583;50.240;8.444;2024-01-16T01:36:50;7.13;;;2.90;;
5827;SDS011;42583;50.240;8.444;2024-01-16T01:51:51;7.13;;;3.30;;
5827;SDS011;42583;50.240;8.444;2024-01-16T02:06:52;9.05;;;3.38;;
5827;SDS011;42583;50.240;8.444;2024-01-16T02:21:54;12.13;;;3.58;;
5827;SDS011;42583;50.240;8.444;2024-01-16T02:36:59;6.40;;;3.37;;
5827;SDS011;42583;50.240;8.444;2024-01-16T02:52:00;9.60;;;3.60;;
5827;SDS011;42583;50.240;8.444;2024-01-16T03:07:00;10.40;;;4.17;;
5827;SDS011;42583;50.240;8.444;2024-01-16T03:22:01;11.57;;;3.43;;
5827;SDS011;42583;50.240;8.444;2024-01-16T03:37:01;9.70;;;3.40;;
5827;SDS011;42583;50.240;8.444;2024-01-16T03:52:02;13.07;;;3.40;;
5827;SDS011;42583;50.240;8.444;2024-01-16T04:07:03;10.00;;;3.30;;
5827;SDS011;42583;50.240;8.444;2024-01-16T04:22:03;6.70;;;3.60;;
5827;SDS011;42583;50.240;8.444;2024-01-16T04:37:05;10.40;;;3.30;;
5827;SDS011;42583;50.240;8.444;2024-01-16T04:52:06;10.00;;;3.20;;
5827;SDS011;42583;50.240;8.444;2024-01-16T05:07:06;7.77;;;3.10;;
5827;SDS011;42583;50.240;8.444;2024-01-16T05:22:07;6.80;;;2.90;;
5827;SDS011;42583;50.240;8.444;2024-01-16T05:37:10;7.37;;;3.40;;
5827;SDS011;42583;50.240;8.444;2024-01-16T05:52:10;10.87;;;3.00;;
5827;SDS011;42583;50.240;8.444;2024-01-16T06:07:11;9.07;;;3.73;;
5827;SDS011;42583;50.240;8.444;2024-01-16T06:22:11;6.20;;;2.77;;
5827;SDS011;42583;50.240;8.444;2024-01-16T06:37:12;11.67;;;3.20;;
5827;SDS011;42583;50.240;8.444;2024-01-16T06:52:12;13.87;;;3.43;;
5827;SDS011;42583;50.240;8.444;2024-01-16T07:07:13;11.00;;;3.05;;
5827;SDS011;42583;50.240;8.444;2024-01-16T07:22:14;8.47;;;2.70;;
5827;SDS011;42583;50.240;8.444;2024-01-16T07:37:15;6.07;;;3.00;;
5827;SDS011;42583;50.240;8.444;2024-01-16T07:52:17;5.90;;;2.53;;
5827;SDS011;42583;50.240;8.444;2024-01-16T08:07:18;7.27;;;2.80;;
5827;SDS011;42583;50.240;8.444;2024-01-16T08:22:18;6.90;;;2.70;;
5827;SDS011;42583;50.240;8.444;2024-01-16T08:37:19;8.73;;;2.90;;
5827;SDS011;42583;50.240;8.444;2024-01-16T08:52:20;5.07;;;2.50;;
5827;SDS011;42583;50.240;8.444;2024-01-16T09:07:20;9.50;;;2.70;;
5827;SDS011;42583;50.240;8.444;2024-01-16T09:22:21;9.30;;;3.07;;
5827;SDS011;42583;50.240;8.444;2024-01-16T09:37:21;4.57;;;2.60;;
5827;SDS011;42583;50.240;8.444;2024-01-16T09:52:22;5.78;;;2.30;;
5827;SDS011;42583;50.240;8.444;2024-01-16T10:07:22;5.25;;;2.13;;
5827;SDS011;42583;50.240;8.444;2024-01-16T10:22:27;7.47;;;3.33;;
5827;SDS011;42583;50.240;8.444;2024-01-16T10:37:28;4.35;;;2.03;;
5827;SDS011;42583;50.240;8.444;2024-01-16T10:52:29;6.45;;;2.30;;
5827;SDS011;42583;50.240;8.444;2024-01-16T11:07:34;9.83;;;2.67;;
5827;SDS011;42583;50.240;8.444;2024-01-16T11:22:41;8.93;;;2.30;;
5827;SDS011;42583;50.240;8.444;2024-01-16T11:37:43;7.68;;;1.80;;
5827;SDS011;42583;50.240;8.444;2024-01-16T11:52:45;6.55;;;1.70;;
5827;SDS011;42583;50.240;8.444;2024-01-16T12:07:49;6.35;;;1.85;;
5827;SDS011;42583;50.240;8.444;2024-01-16T12:22:54;3.27;;;2.00;;
5827;SDS011;42583;50.240;8.444;2024-01-16T12:38:03;6.05;;;2.10;;
5827;SDS011;42583;50.240;8.444;2024-01-16T12:53:11;5.95;;;1.90;;
5827;SDS011;42583;50.240;8.444;2024-01-16T13:08:18;7.85;;;1.83;;
5827;SDS011;42583;50.240;8.444;2024-01-16T13:23:20;4.53;;;2.00;;
5827;SDS011;42583;50.240;8.444;2024-01-16T13:38:21;5.20;;;1.90;;
5827;SDS011;42583;50.240;8.444;2024-01-16T13:53:22;7.95;;;2.63;;
5827;SDS011;42583;50.240;8.444;2024-01-16T14:08:23;12.85;;;3.38;;
5827;SDS011;42583;50.240;8.444;2024-01-16T14:23:24;9.63;;;3.67;;
5827;SDS011;42583;50.240;8.444;2024-01-16T14:38:24;9.83;;;3.70;;
5827;SDS011;42583;50.240;8.444;2024-01-16T14:53:25;10.10;;;3.97;;
5827;SDS011;42583;50.240;8.444;2024-01-16T15:08:27;7.60;;;4.17;;
5827;SDS011;42583;50.240;8.444;2024-01-16T15:23:31;13.20;;;4.07;;
5827;SDS011;42583;50.240;8.444;2024-01-16T15:38:32;10.53;;;4.17;;
5827;SDS011;42583;50.240;8.444;2024-01-16T15:53:34;13.40;;;3.87;;
5827;SDS011;42583;50.240;8.444;2024-01-16T16:08:35;13.43;;;4.00;;
5827;SDS011;42583;50.240;8.444;2024-01-16T16:23:35;9.13;;;3.70;;
5827;SDS011;42583;50.240;8.444;2024-01-16T16:38:36;61.83;;;4.60;;
5827;SDS011;42583;50.240;8.444;2024-01-16T16:53:41;7.72;;;3.03;;
5827;SDS011;42583;50.240;8.444;2024-01-16T17:08:41;14.97;;;3.77;;
5827;SDS011;42583;50.240;8.444;2024-01-16T17:23:45;12.53;;;3.53;;
5827;SDS011;42583;50.240;8.444;2024-01-16T17:38:45;8.57;;;3.53;;
5827;SDS011;42583;50.240;8.444;2024-01-16T17:53:46;10.00;;;3.47;;
5827;SDS011;42583;50.240;8.444;2024-01-16T18:08:47;12.80;;;4.67;;
5827;SDS011;42583;50.240;8.444;2024-01-16T18:23:48;12.60;;;3.73;;
5827;SDS011;42583;50.240;8.444;2024-01-16T18:38:49;7.80;;;3.57;;
5827;SDS011;42583;50.240;8.444;2024-01-16T18:53:50;8.27;;;2.70;;
5827;SDS011;42583;50.240;8.444;2024-01-16T19:08:50;13.33;;;2.80;;
5827;SDS011;42583;50.240;8.444;2024-01-16T19:23:51;8.33;;;2.57;;
5827;SDS011;42583;50.240;8.444;2024-01-16T19:38:51;10.47;;;2.80;;
5827;SDS011;42583;50.240;8.444;2024-01-16T19:53:52;5.13;;;2.50;;
5827;SDS011;42583;50.240;8.444;2024-01-16T20:08:53;9.80;;;2.17;;
5827;SDS011;42583;50.240;8.444;2024-01-16T20:23:57;8.30;;;2.43;;
5827;SDS011;42583;50.240;8.444;2024-01-16T20:38:58;7.83;;;2.77;;
5827;SDS011;42583;50.240;8.444;2024-01-16T20:53:59;6.87;;;2.80;;
5827;SDS011;42583;50.240;8.444;2024-01-16T21:08:59;5.30;;;3.03;;
5827;SDS011;42583;50.240;8.444;2024-01-16T21:24:00;7.80;;;2.63;;
5827;SDS011;42583;50.240;8.444;2024-01-16T21:39:02;10.43;;;3.13;;
5827;SDS011;42583;50.240;8.444;2024-01-16T21:54:03;6.30;;;2.90;;
5827;SDS011;42583;50.240;8.444;2024-01-16T22:09:04;9.13;;;3.37;;
5827;SDS011;42583;50.240;8.444;2024-01-16T22:24:05;9.00;;;3.53;;
5827;SDS011;42583;50.240;8.444;2024-01-16T22:39:06;15.63;;;3.93;;
5827;SDS011;42583;50.240;8.444;2024-01-16T22:54:13;12.97;;;4.43;;
5827;SDS011;42583;50.240;8.444;2024-01-16T23:09:14;15.83;;;5.30;;
5827;SDS011;42583;50.240;8.444;2024-01-16T23:24:14;14.60;;;5.23;;
5827;SDS011;42583;50.240;8.444;2024-01-16T23:39:18;18.13;;;5.40;;
5827;SDS011;42583;50.240;8.444;2024-01-16T23:54:19;13.40;;;4.07;;
